sensor_id;sensor_type;location;lat;lon;timestamp;temperature;humidity
68257;DHT22;55069;51.568;4.656;2023-04-03T00:00:32;3.33;89.16
68257;DHT22;55069;51.568;4.656;2023-04-03T00:02:58;3.28;89.36
68257;DHT22;55069;51.568;4.656;2023-04-03T00:05:24;3.19;88.68
68257;DHT22;55069;51.568;4.656;2023-04-03T00:07:49;3.19;88.45
68257;DHT22;55069;51.568;4.656;2023-04-03T00:10:16;3.19;87.38
68257;DHT22;55069;51.568;4.656;2023-04-03T00:12:41;3.13;87.85
68257;DHT22;55069;51.568;4.656;2023-04-03T00:15:08;3.22;86.83
68257;DHT22;55069;51.568;4.656;2023-04-03T00:17:34;3.20;87.08
68257;DHT22;55069;51.568;4.656;2023-04-03T00:20:04;3.12;86.82
68257;DHT22;55069;51.568;4.656;2023-04-03T00:22:30;3.17;86.38
68257;DHT22;55069;51.568;4.656;2023-04-03T00:24:56;3.17;86.97
68257;DHT22;55069;51.568;4.656;2023-04-03T00:27:22;3.16;87.16
68257;DHT22;55069;51.568;4.656;2023-04-03T00:29:47;3.10;87.08
68257;DHT22;55069;51.568;4.656;2023-04-03T00:32:14;3.10;86.20
68257;DHT22;55069;51.568;4.656;2023-04-03T00:34:39;3.13;85.78
68257;DHT22;55069;51.568;4.656;2023-04-03T00:37:05;3.09;86.31
68257;DHT22;55069;51.568;4.656;2023-04-03T00:39:31;3.10;86.73
68257;DHT22;55069;51.568;4.656;2023-04-03T00:41:57;3.10;85.46
68257;DHT22;55069;51.568;4.656;2023-04-03T00:47:13;2.99;86.23
68257;DHT22;55069;51.568;4.656;2023-04-03T00:49:42;2.99;86.55
68257;DHT22;55069;51.568;4.656;2023-04-03T00:52:11;3.02;86.55
68257;DHT22;55069;51.568;4.656;2023-04-03T00:54:38;2.99;86.86
68257;DHT22;55069;51.568;4.656;2023-04-03T00:57:06;2.89;87.53
68257;DHT22;55069;51.568;4.656;2023-04-03T00:59:35;2.93;87.96
68257;DHT22;55069;51.568;4.656;2023-04-03T01:02:02;2.84;87.68
68257;DHT22;55069;51.568;4.656;2023-04-03T01:04:34;2.84;87.16
68257;DHT22;55069;51.568;4.656;2023-04-03T01:07:06;2.86;87.25
68257;DHT22;55069;51.568;4.656;2023-04-03T01:09:33;2.82;87.45
68257;DHT22;55069;51.568;4.656;2023-04-03T01:14:45;2.76;88.00
68257;DHT22;55069;51.568;4.656;2023-04-03T01:17:35;2.68;87.77
68257;DHT22;55069;51.568;4.656;2023-04-03T01:23:04;2.65;88.04
68257;DHT22;55069;51.568;4.656;2023-04-03T01:25:32;2.68;88.18
68257;DHT22;55069;51.568;4.656;2023-04-03T01:27:59;2.68;88.07
68257;DHT22;55069;51.568;4.656;2023-04-03T01:30:30;2.66;88.41
68257;DHT22;55069;51.568;4.656;2023-04-03T01:32:58;2.68;88.08
68257;DHT22;55069;51.568;4.656;2023-04-03T01:35:24;2.71;86.90
68257;DHT22;55069;51.568;4.656;2023-04-03T01:37:51;2.69;86.70
68257;DHT22;55069;51.568;4.656;2023-04-03T01:40:16;2.71;86.67
68257;DHT22;55069;51.568;4.656;2023-04-03T01:42:43;2.65;86.95
68257;DHT22;55069;51.568;4.656;2023-04-03T01:45:09;2.62;86.71
68257;DHT22;55069;51.568;4.656;2023-04-03T01:47:35;2.62;86.95
68257;DHT22;55069;51.568;4.656;2023-04-03T01:50:01;2.68;86.99
68257;DHT22;55069;51.568;4.656;2023-04-03T01:52:29;2.54;87.59
68257;DHT22;55069;51.568;4.656;2023-04-03T01:54:55;2.54;87.83
68257;DHT22;55069;51.568;4.656;2023-04-03T01:57:21;2.47;88.04
68257;DHT22;55069;51.568;4.656;2023-04-03T01:59:47;2.40;88.07
68257;DHT22;55069;51.568;4.656;2023-04-03T02:02:12;2.37;88.24
68257;DHT22;55069;51.568;4.656;2023-04-03T02:04:40;2.34;88.49
68257;DHT22;55069;51.568;4.656;2023-04-03T02:07:06;2.31;88.66
68257;DHT22;55069;51.568;4.656;2023-04-03T02:09:32;2.31;88.72
68257;DHT22;55069;51.568;4.656;2023-04-03T02:11:58;2.31;88.78
68257;DHT22;55069;51.568;4.656;2023-04-03T02:14:24;2.31;88.00
68257;DHT22;55069;51.568;4.656;2023-04-03T02:16:50;2.30;87.24
68257;DHT22;55069;51.568;4.656;2023-04-03T02:19:15;2.26;86.92
68257;DHT22;55069;51.568;4.656;2023-04-03T02:21:41;2.33;86.85
68257;DHT22;55069;51.568;4.656;2023-04-03T02:24:07;2.24;87.32
68257;DHT22;55069;51.568;4.656;2023-04-03T02:26:33;2.16;87.68
68257;DHT22;55069;51.568;4.656;2023-04-03T02:28:59;2.11;87.38
68257;DHT22;55069;51.568;4.656;2023-04-03T02:31:25;2.18;87.23
68257;DHT22;55069;51.568;4.656;2023-04-03T02:33:51;2.11;87.63
68257;DHT22;55069;51.568;4.656;2023-04-03T02:36:17;2.05;88.13
68257;DHT22;55069;51.568;4.656;2023-04-03T02:38:49;2.05;88.73
68257;DHT22;55069;51.568;4.656;2023-04-03T02:41:15;2.02;88.55
68257;DHT22;55069;51.568;4.656;2023-04-03T02:43:41;2.00;88.41
68257;DHT22;55069;51.568;4.656;2023-04-03T02:46:07;2.05;88.78
68257;DHT22;55069;51.568;4.656;2023-04-03T02:48:33;2.03;88.65
68257;DHT22;55069;51.568;4.656;2023-04-03T02:50:59;2.06;88.47
68257;DHT22;55069;51.568;4.656;2023-04-03T02:53:26;2.05;88.82
68257;DHT22;55069;51.568;4.656;2023-04-03T02:55:52;2.02;87.86
68257;DHT22;55069;51.568;4.656;2023-04-03T02:58:18;1.96;88.42
68257;DHT22;55069;51.568;4.656;2023-04-03T03:00:44;1.96;89.08
68257;DHT22;55069;51.568;4.656;2023-04-03T03:03:09;1.93;89.17
68257;DHT22;55069;51.568;4.656;2023-04-03T03:05:35;1.89;89.06
68257;DHT22;55069;51.568;4.656;2023-04-03T03:08:01;1.83;89.05
68257;DHT22;55069;51.568;4.656;2023-04-03T03:10:27;1.80;89.44
68257;DHT22;55069;51.568;4.656;2023-04-03T03:12:53;1.75;89.12
68257;DHT22;55069;51.568;4.656;2023-04-03T03:15:18;1.72;89.34
68257;DHT22;55069;51.568;4.656;2023-04-03T03:17:44;1.82;89.10
68257;DHT22;55069;51.568;4.656;2023-04-03T03:20:11;1.68;88.71
68257;DHT22;55069;51.568;4.656;2023-04-03T03:22:37;1.69;88.62
68257;DHT22;55069;51.568;4.656;2023-04-03T03:25:03;1.70;89.09
68257;DHT22;55069;51.568;4.656;2023-04-03T03:27:30;1.69;89.07
68257;DHT22;55069;51.568;4.656;2023-04-03T03:29:55;1.68;89.40
68257;DHT22;55069;51.568;4.656;2023-04-03T03:32:21;1.65;89.46
68257;DHT22;55069;51.568;4.656;2023-04-03T03:34:47;1.69;89.27
68257;DHT22;55069;51.568;4.656;2023-04-03T03:37:13;1.66;89.09
68257;DHT22;55069;51.568;4.656;2023-04-03T03:39:38;1.65;89.22
68257;DHT22;55069;51.568;4.656;2023-04-03T03:42:04;1.65;88.66
68257;DHT22;55069;51.568;4.656;2023-04-03T03:44:30;1.63;89.04
68257;DHT22;55069;51.568;4.656;2023-04-03T03:46:56;1.65;88.85
68257;DHT22;55069;51.568;4.656;2023-04-03T03:49:22;1.63;88.94
68257;DHT22;55069;51.568;4.656;2023-04-03T03:51:48;1.56;89.07
68257;DHT22;55069;51.568;4.656;2023-04-03T03:54:14;1.55;89.16
68257;DHT22;55069;51.568;4.656;2023-04-03T03:56:40;1.52;89.17
68257;DHT22;55069;51.568;4.656;2023-04-03T03:59:06;1.50;89.52
68257;DHT22;55069;51.568;4.656;2023-04-03T04:01:32;1.48;89.68
68257;DHT22;55069;51.568;4.656;2023-04-03T04:03:58;1.41;89.55
68257;DHT22;55069;51.568;4.656;2023-04-03T04:06:28;1.40;89.99
68257;DHT22;55069;51.568;4.656;2023-04-03T04:08:57;1.38;90.12
68257;DHT22;55069;51.568;4.656;2023-04-03T04:11:23;1.41;90.20
68257;DHT22;55069;51.568;4.656;2023-04-03T04:13:51;1.40;90.33
68257;DHT22;55069;51.568;4.656;2023-04-03T04:16:19;1.31;90.43
68257;DHT22;55069;51.568;4.656;2023-04-03T04:18:45;1.30;90.49
68257;DHT22;55069;51.568;4.656;2023-04-03T04:21:11;1.30;90.51
68257;DHT22;55069;51.568;4.656;2023-04-03T04:23:38;1.23;90.52
68257;DHT22;55069;51.568;4.656;2023-04-03T04:26:03;1.19;90.67
68257;DHT22;55069;51.568;4.656;2023-04-03T04:28:33;1.13;90.58
68257;DHT22;55069;51.568;4.656;2023-04-03T04:31:00;1.13;90.86
68257;DHT22;55069;51.568;4.656;2023-04-03T04:33:27;1.11;91.08
68257;DHT22;55069;51.568;4.656;2023-04-03T04:35:54;1.13;91.21
68257;DHT22;55069;51.568;4.656;2023-04-03T04:38:20;1.13;91.31
68257;DHT22;55069;51.568;4.656;2023-04-03T04:40:48;1.13;91.25
68257;DHT22;55069;51.568;4.656;2023-04-03T04:43:14;1.10;91.14
68257;DHT22;55069;51.568;4.656;2023-04-03T04:45:41;1.07;91.19
68257;DHT22;55069;51.568;4.656;2023-04-03T04:48:08;1.01;91.06
68257;DHT22;55069;51.568;4.656;2023-04-03T04:50:34;1.00;91.11
68257;DHT22;55069;51.568;4.656;2023-04-03T04:53:00;1.04;91.01
68257;DHT22;55069;51.568;4.656;2023-04-03T04:55:26;1.01;90.77
68257;DHT22;55069;51.568;4.656;2023-04-03T04:57:52;1.00;91.07
68257;DHT22;55069;51.568;4.656;2023-04-03T05:00:19;0.97;91.19
68257;DHT22;55069;51.568;4.656;2023-04-03T05:02:45;0.99;90.80
68257;DHT22;55069;51.568;4.656;2023-04-03T05:05:11;0.96;90.85
68257;DHT22;55069;51.568;4.656;2023-04-03T05:07:37;0.94;90.98
68257;DHT22;55069;51.568;4.656;2023-04-03T05:10:03;0.94;91.12
68257;DHT22;55069;51.568;4.656;2023-04-03T05:12:30;0.93;91.08
68257;DHT22;55069;51.568;4.656;2023-04-03T05:14:59;0.97;91.13
68257;DHT22;55069;51.568;4.656;2023-04-03T05:17:28;0.94;91.21
68257;DHT22;55069;51.568;4.656;2023-04-03T05:19:55;0.94;91.22
68257;DHT22;55069;51.568;4.656;2023-04-03T05:22:23;0.97;91.17
68257;DHT22;55069;51.568;4.656;2023-04-03T05:24:51;0.97;91.03
68257;DHT22;55069;51.568;4.656;2023-04-03T05:27:18;0.96;90.97
68257;DHT22;55069;51.568;4.656;2023-04-03T05:29:50;0.96;90.88
68257;DHT22;55069;51.568;4.656;2023-04-03T05:32:20;1.00;90.94
68257;DHT22;55069;51.568;4.656;2023-04-03T05:34:50;1.05;90.76
68257;DHT22;55069;51.568;4.656;2023-04-03T05:37:18;1.08;90.45
68257;DHT22;55069;51.568;4.656;2023-04-03T05:39:45;1.13;90.51
68257;DHT22;55069;51.568;4.656;2023-04-03T05:42:12;1.20;90.16
68257;DHT22;55069;51.568;4.656;2023-04-03T05:44:38;1.26;90.07
68257;DHT22;55069;51.568;4.656;2023-04-03T05:47:04;1.31;89.46
68257;DHT22;55069;51.568;4.656;2023-04-03T05:49:30;1.32;89.36
68257;DHT22;55069;51.568;4.656;2023-04-03T05:51:56;1.35;89.31
68257;DHT22;55069;51.568;4.656;2023-04-03T05:54:27;1.44;89.13
68257;DHT22;55069;51.568;4.656;2023-04-03T05:57:09;1.59;88.55
68257;DHT22;55069;51.568;4.656;2023-04-03T05:59:35;1.68;88.25
68257;DHT22;55069;51.568;4.656;2023-04-03T06:02:01;1.78;87.69
68257;DHT22;55069;51.568;4.656;2023-04-03T06:04:27;1.83;87.30
68257;DHT22;55069;51.568;4.656;2023-04-03T06:06:55;1.90;86.81
68257;DHT22;55069;51.568;4.656;2023-04-03T06:09:24;1.97;86.88
68257;DHT22;55069;51.568;4.656;2023-04-03T06:11:50;2.07;86.63
68257;DHT22;55069;51.568;4.656;2023-04-03T06:14:18;2.16;86.40
68257;DHT22;55069;51.568;4.656;2023-04-03T06:16:45;2.20;86.03
68257;DHT22;55069;51.568;4.656;2023-04-03T06:19:11;2.28;85.57
68257;DHT22;55069;51.568;4.656;2023-04-03T06:21:41;2.36;85.33
68257;DHT22;55069;51.568;4.656;2023-04-03T06:24:08;2.51;84.71
68257;DHT22;55069;51.568;4.656;2023-04-03T06:26:34;2.54;84.51
68257;DHT22;55069;51.568;4.656;2023-04-03T06:29:00;2.47;84.57
68257;DHT22;55069;51.568;4.656;2023-04-03T06:31:27;2.51;84.50
68257;DHT22;55069;51.568;4.656;2023-04-03T06:33:53;2.62;84.00
68257;DHT22;55069;51.568;4.656;2023-04-03T06:36:20;2.69;83.83
68257;DHT22;55069;51.568;4.656;2023-04-03T06:38:47;2.78;83.94
68257;DHT22;55069;51.568;4.656;2023-04-03T06:41:13;2.81;82.92
68257;DHT22;55069;51.568;4.656;2023-04-03T06:43:38;2.86;83.05
68257;DHT22;55069;51.568;4.656;2023-04-03T06:46:04;2.97;82.52
68257;DHT22;55069;51.568;4.656;2023-04-03T06:48:30;3.04;82.19
68257;DHT22;55069;51.568;4.656;2023-04-03T06:50:56;3.10;81.74
68257;DHT22;55069;51.568;4.656;2023-04-03T06:53:22;3.10;81.88
68257;DHT22;55069;51.568;4.656;2023-04-03T06:55:48;3.20;81.57
68257;DHT22;55069;51.568;4.656;2023-04-03T06:58:16;3.19;81.38
68257;DHT22;55069;51.568;4.656;2023-04-03T07:00:42;3.22;81.79
68257;DHT22;55069;51.568;4.656;2023-04-03T07:03:08;3.28;81.59
68257;DHT22;55069;51.568;4.656;2023-04-03T07:05:34;3.37;81.18
68257;DHT22;55069;51.568;4.656;2023-04-03T07:08:00;3.43;79.94
68257;DHT22;55069;51.568;4.656;2023-04-03T07:10:26;3.50;79.94
68257;DHT22;55069;51.568;4.656;2023-04-03T07:12:52;3.54;80.20
68257;DHT22;55069;51.568;4.656;2023-04-03T07:15:18;3.61;78.95
68257;DHT22;55069;51.568;4.656;2023-04-03T07:17:44;3.72;78.42
68257;DHT22;55069;51.568;4.656;2023-04-03T07:20:10;3.71;78.72
68257;DHT22;55069;51.568;4.656;2023-04-03T07:22:36;3.77;79.31
68257;DHT22;55069;51.568;4.656;2023-04-03T07:25:03;3.79;78.85
68257;DHT22;55069;51.568;4.656;2023-04-03T07:27:29;3.86;78.53
68257;DHT22;55069;51.568;4.656;2023-04-03T07:29:54;3.96;78.83
68257;DHT22;55069;51.568;4.656;2023-04-03T07:32:21;4.10;77.78
68257;DHT22;55069;51.568;4.656;2023-04-03T07:34:47;4.13;77.16
68257;DHT22;55069;51.568;4.656;2023-04-03T07:37:13;4.17;76.96
68257;DHT22;55069;51.568;4.656;2023-04-03T07:39:43;4.27;77.73
68257;DHT22;55069;51.568;4.656;2023-04-03T07:42:10;4.38;77.24
68257;DHT22;55069;51.568;4.656;2023-04-03T07:44:38;4.47;75.31
68257;DHT22;55069;51.568;4.656;2023-04-03T07:47:03;4.56;75.87
68257;DHT22;55069;51.568;4.656;2023-04-03T07:49:29;4.65;75.38
68257;DHT22;55069;51.568;4.656;2023-04-03T07:51:55;4.77;74.97
68257;DHT22;55069;51.568;4.656;2023-04-03T07:54:21;4.89;73.96
68257;DHT22;55069;51.568;4.656;2023-04-03T07:56:46;4.96;74.36
68257;DHT22;55069;51.568;4.656;2023-04-03T07:59:12;5.11;74.46
68257;DHT22;55069;51.568;4.656;2023-04-03T08:01:38;5.16;72.64
68257;DHT22;55069;51.568;4.656;2023-04-03T08:04:03;5.30;72.70
68257;DHT22;55069;51.568;4.656;2023-04-03T08:06:31;5.43;72.28
68257;DHT22;55069;51.568;4.656;2023-04-03T08:08:59;5.51;72.02
68257;DHT22;55069;51.568;4.656;2023-04-03T08:11:24;5.65;69.91
68257;DHT22;55069;51.568;4.656;2023-04-03T08:13:52;5.78;71.18
68257;DHT22;55069;51.568;4.656;2023-04-03T08:16:20;5.90;70.82
68257;DHT22;55069;51.568;4.656;2023-04-03T08:18:48;5.98;70.58
68257;DHT22;55069;51.568;4.656;2023-04-03T08:21:14;6.09;69.18
68257;DHT22;55069;51.568;4.656;2023-04-03T08:23:41;6.12;68.21
68257;DHT22;55069;51.568;4.656;2023-04-03T08:26:15;6.18;67.59
68257;DHT22;55069;51.568;4.656;2023-04-03T08:28:41;6.23;68.65
68257;DHT22;55069;51.568;4.656;2023-04-03T08:31:10;6.30;67.81
68257;DHT22;55069;51.568;4.656;2023-04-03T08:33:38;6.40;67.90
68257;DHT22;55069;51.568;4.656;2023-04-03T08:36:16;6.46;67.08
68257;DHT22;55069;51.568;4.656;2023-04-03T08:38:42;6.54;66.37
68257;DHT22;55069;51.568;4.656;2023-04-03T08:43:55;6.85;67.63
68257;DHT22;55069;51.568;4.656;2023-04-03T08:46:31;6.91;64.13
68257;DHT22;55069;51.568;4.656;2023-04-03T08:49:02;6.98;63.55
68257;DHT22;55069;51.568;4.656;2023-04-03T08:51:31;6.95;64.25
68257;DHT22;55069;51.568;4.656;2023-04-03T08:54:01;7.08;63.34
68257;DHT22;55069;51.568;4.656;2023-04-03T08:56:30;7.15;63.36
68257;DHT22;55069;51.568;4.656;2023-04-03T08:59:03;7.30;63.75
68257;DHT22;55069;51.568;4.656;2023-04-03T09:01:35;7.26;60.55
68257;DHT22;55069;51.568;4.656;2023-04-03T09:04:14;7.36;61.82
68257;DHT22;55069;51.568;4.656;2023-04-03T09:06:44;7.47;60.52
68257;DHT22;55069;51.568;4.656;2023-04-03T09:12:01;7.43;59.38
68257;DHT22;55069;51.568;4.656;2023-04-03T09:19:56;7.77;60.21
68257;DHT22;55069;51.568;4.656;2023-04-03T09:22:25;7.83;59.87
68257;DHT22;55069;51.568;4.656;2023-04-03T09:25:13;7.93;58.94
68257;DHT22;55069;51.568;4.656;2023-04-03T09:27:41;8.08;58.53
68257;DHT22;55069;51.568;4.656;2023-04-03T09:30:24;8.16;58.13
68257;DHT22;55069;51.568;4.656;2023-04-03T09:32:52;8.25;58.83
68257;DHT22;55069;51.568;4.656;2023-04-03T09:35:27;8.21;55.92
68257;DHT22;55069;51.568;4.656;2023-04-03T09:37:58;8.33;56.87
68257;DHT22;55069;51.568;4.656;2023-04-03T09:42:52;8.28;56.00
68257;DHT22;55069;51.568;4.656;2023-04-03T09:45:28;8.24;52.07
68257;DHT22;55069;51.568;4.656;2023-04-03T09:48:08;8.41;52.98
68257;DHT22;55069;51.568;4.656;2023-04-03T09:53:40;8.81;55.14
68257;DHT22;55069;51.568;4.656;2023-04-03T09:58:46;8.79;50.48
68257;DHT22;55069;51.568;4.656;2023-04-03T10:01:24;8.87;49.04
68257;DHT22;55069;51.568;4.656;2023-04-03T10:04:10;8.84;47.95
68257;DHT22;55069;51.568;4.656;2023-04-03T10:06:40;8.97;46.46
68257;DHT22;55069;51.568;4.656;2023-04-03T10:09:26;9.07;47.10
68257;DHT22;55069;51.568;4.656;2023-04-03T10:12:05;9.17;45.56
68257;DHT22;55069;51.568;4.656;2023-04-03T10:14:37;9.35;46.09
68257;DHT22;55069;51.568;4.656;2023-04-03T10:17:16;9.43;46.04
68257;DHT22;55069;51.568;4.656;2023-04-03T10:19:57;9.18;44.34
68257;DHT22;55069;51.568;4.656;2023-04-03T10:25:32;9.32;46.52
68257;DHT22;55069;51.568;4.656;2023-04-03T10:30:48;9.48;43.34
68257;DHT22;55069;51.568;4.656;2023-04-03T10:33:45;9.66;46.49
68257;DHT22;55069;51.568;4.656;2023-04-03T10:36:17;9.86;45.68
68257;DHT22;55069;51.568;4.656;2023-04-03T10:50:29;9.80;42.59
68257;DHT22;55069;51.568;4.656;2023-04-03T10:56:15;10.11;43.16
68257;DHT22;55069;51.568;4.656;2023-04-03T10:58:45;10.07;42.71
68257;DHT22;55069;51.568;4.656;2023-04-03T11:01:16;10.11;43.33
68257;DHT22;55069;51.568;4.656;2023-04-03T11:03:49;10.22;42.53
68257;DHT22;55069;51.568;4.656;2023-04-03T11:06:17;10.28;43.43
68257;DHT22;55069;51.568;4.656;2023-04-03T11:08:57;10.28;42.15
68257;DHT22;55069;51.568;4.656;2023-04-03T11:11:29;10.17;43.05
68257;DHT22;55069;51.568;4.656;2023-04-03T11:14:14;10.45;45.61
68257;DHT22;55069;51.568;4.656;2023-04-03T11:17:15;10.34;42.06
68257;DHT22;55069;51.568;4.656;2023-04-03T11:19:59;10.34;42.45
68257;DHT22;55069;51.568;4.656;2023-04-03T11:22:30;10.38;38.46
68257;DHT22;55069;51.568;4.656;2023-04-03T11:25:13;10.27;40.24
68257;DHT22;55069;51.568;4.656;2023-04-03T11:28:02;10.38;39.02
68257;DHT22;55069;51.568;4.656;2023-04-03T11:35:47;10.69;40.12
68257;DHT22;55069;51.568;4.656;2023-04-03T11:38:33;10.71;40.75
68257;DHT22;55069;51.568;4.656;2023-04-03T11:41:06;10.89;38.91
68257;DHT22;55069;51.568;4.656;2023-04-03T11:43:33;11.24;40.76
68257;DHT22;55069;51.568;4.656;2023-04-03T11:46:04;11.17;37.87
68257;DHT22;55069;51.568;4.656;2023-04-03T11:50:58;11.13;38.98
68257;DHT22;55069;51.568;4.656;2023-04-03T11:53:36;11.01;38.25
68257;DHT22;55069;51.568;4.656;2023-04-03T12:01:52;11.00;39.52
68257;DHT22;55069;51.568;4.656;2023-04-03T12:04:20;11.07;38.54
68257;DHT22;55069;51.568;4.656;2023-04-03T12:11:57;11.18;37.12
68257;DHT22;55069;51.568;4.656;2023-04-03T12:14:24;11.07;36.09
68257;DHT22;55069;51.568;4.656;2023-04-03T12:16:53;11.04;36.54
68257;DHT22;55069;51.568;4.656;2023-04-03T12:19:37;11.09;35.85
68257;DHT22;55069;51.568;4.656;2023-04-03T12:22:26;11.09;35.55
68257;DHT22;55069;51.568;4.656;2023-04-03T12:24:53;11.10;36.29
68257;DHT22;55069;51.568;4.656;2023-04-03T12:32:39;11.37;33.59
68257;DHT22;55069;51.568;4.656;2023-04-03T12:46:28;11.45;32.79
68257;DHT22;55069;51.568;4.656;2023-04-03T12:48:59;11.68;37.68
68257;DHT22;55069;51.568;4.656;2023-04-03T12:51:42;11.52;35.37
68257;DHT22;55069;51.568;4.656;2023-04-03T12:54:35;11.54;37.73
68257;DHT22;55069;51.568;4.656;2023-04-03T12:57:17;11.64;35.62
68257;DHT22;55069;51.568;4.656;2023-04-03T12:59:43;11.64;36.55
68257;DHT22;55069;51.568;4.656;2023-04-03T13:02:32;11.92;39.30
68257;DHT22;55069;51.568;4.656;2023-04-03T13:05:19;11.83;36.47
68257;DHT22;55069;51.568;4.656;2023-04-03T13:07:49;11.93;37.93
68257;DHT22;55069;51.568;4.656;2023-04-03T13:10:17;11.71;37.02
68257;DHT22;55069;51.568;4.656;2023-04-03T13:12:48;11.74;36.78
68257;DHT22;55069;51.568;4.656;2023-04-03T13:15:19;11.81;39.36
68257;DHT22;55069;51.568;4.656;2023-04-03T13:17:46;11.95;39.30
68257;DHT22;55069;51.568;4.656;2023-04-03T13:20:34;11.87;35.43
68257;DHT22;55069;51.568;4.656;2023-04-03T13:23:06;11.79;36.26
68257;DHT22;55069;51.568;4.656;2023-04-03T13:25:37;11.66;37.96
68257;DHT22;55069;51.568;4.656;2023-04-03T13:28:09;11.61;37.73
68257;DHT22;55069;51.568;4.656;2023-04-03T13:30:39;11.57;37.32
68257;DHT22;55069;51.568;4.656;2023-04-03T13:33:21;11.65;37.64
68257;DHT22;55069;51.568;4.656;2023-04-03T13:36:27;11.76;37.96
68257;DHT22;55069;51.568;4.656;2023-04-03T13:38:46;11.90;37.95
68257;DHT22;55069;51.568;4.656;2023-04-03T13:41:37;11.99;37.86
68257;DHT22;55069;51.568;4.656;2023-04-03T13:46:43;11.93;35.18
68257;DHT22;55069;51.568;4.656;2023-04-03T13:49:21;12.20;37.63
68257;DHT22;55069;51.568;4.656;2023-04-03T13:51:47;12.34;36.77
68257;DHT22;55069;51.568;4.656;2023-04-03T13:54:23;12.48;39.83
68257;DHT22;55069;51.568;4.656;2023-04-03T13:56:57;12.17;38.13
68257;DHT22;55069;51.568;4.656;2023-04-03T13:59:27;12.43;40.89
68257;DHT22;55069;51.568;4.656;2023-04-03T14:04:31;12.50;38.37
68257;DHT22;55069;51.568;4.656;2023-04-03T14:06:57;12.38;41.03
68257;DHT22;55069;51.568;4.656;2023-04-03T14:09:26;12.33;38.29
68257;DHT22;55069;51.568;4.656;2023-04-03T14:11:54;12.10;37.57
68257;DHT22;55069;51.568;4.656;2023-04-03T14:14:24;12.05;37.81
68257;DHT22;55069;51.568;4.656;2023-04-03T14:16:53;12.07;41.55
68257;DHT22;55069;51.568;4.656;2023-04-03T14:19:28;11.97;40.31
68257;DHT22;55069;51.568;4.656;2023-04-03T14:21:55;11.96;42.19
68257;DHT22;55069;51.568;4.656;2023-04-03T14:24:21;12.10;40.82
68257;DHT22;55069;51.568;4.656;2023-04-03T14:26:50;12.19;40.20
68257;DHT22;55069;51.568;4.656;2023-04-03T14:29:17;11.99;38.92
68257;DHT22;55069;51.568;4.656;2023-04-03T14:31:44;12.23;40.50
68257;DHT22;55069;51.568;4.656;2023-04-03T14:34:12;12.10;39.18
68257;DHT22;55069;51.568;4.656;2023-04-03T14:36:38;12.23;39.01
68257;DHT22;55069;51.568;4.656;2023-04-03T14:39:06;12.14;39.49
68257;DHT22;55069;51.568;4.656;2023-04-03T14:41:32;12.24;39.38
68257;DHT22;55069;51.568;4.656;2023-04-03T14:43:57;12.22;38.95
68257;DHT22;55069;51.568;4.656;2023-04-03T14:46:32;12.10;39.89
68257;DHT22;55069;51.568;4.656;2023-04-03T14:48:59;11.82;40.33
68257;DHT22;55069;51.568;4.656;2023-04-03T14:51:25;11.93;41.73
68257;DHT22;55069;51.568;4.656;2023-04-03T14:53:52;12.07;42.80
68257;DHT22;55069;51.568;4.656;2023-04-03T14:56:28;12.00;41.89
68257;DHT22;55069;51.568;4.656;2023-04-03T14:58:59;12.17;43.33
68257;DHT22;55069;51.568;4.656;2023-04-03T15:01:27;12.22;41.23
68257;DHT22;55069;51.568;4.656;2023-04-03T15:03:54;12.29;43.63
68257;DHT22;55069;51.568;4.656;2023-04-03T15:06:20;12.29;42.63
68257;DHT22;55069;51.568;4.656;2023-04-03T15:08:47;12.33;40.49
68257;DHT22;55069;51.568;4.656;2023-04-03T15:11:14;12.37;40.55
68257;DHT22;55069;51.568;4.656;2023-04-03T15:13:40;12.62;41.80
68257;DHT22;55069;51.568;4.656;2023-04-03T15:16:15;12.33;41.67
68257;DHT22;55069;51.568;4.656;2023-04-03T15:18:41;12.54;41.80
68257;DHT22;55069;51.568;4.656;2023-04-03T15:21:07;12.53;40.62
68257;DHT22;55069;51.568;4.656;2023-04-03T15:23:33;12.50;39.55
68257;DHT22;55069;51.568;4.656;2023-04-03T15:25:59;12.60;40.24
68257;DHT22;55069;51.568;4.656;2023-04-03T15:28:28;12.74;40.57
68257;DHT22;55069;51.568;4.656;2023-04-03T15:30:53;12.87;41.74
68257;DHT22;55069;51.568;4.656;2023-04-03T15:33:19;12.92;42.15
68257;DHT22;55069;51.568;4.656;2023-04-03T15:35:45;12.95;41.74
68257;DHT22;55069;51.568;4.656;2023-04-03T15:38:11;12.88;39.56
68257;DHT22;55069;51.568;4.656;2023-04-03T15:40:37;12.99;40.06
68257;DHT22;55069;51.568;4.656;2023-04-03T15:43:04;13.12;38.71
68257;DHT22;55069;51.568;4.656;2023-04-03T15:45:30;13.15;41.05
68257;DHT22;55069;51.568;4.656;2023-04-03T15:47:57;13.26;39.53
68257;DHT22;55069;51.568;4.656;2023-04-03T15:50:23;13.23;40.37
68257;DHT22;55069;51.568;4.656;2023-04-03T15:52:50;13.26;40.43
68257;DHT22;55069;51.568;4.656;2023-04-03T15:55:21;13.39;39.63
68257;DHT22;55069;51.568;4.656;2023-04-03T15:57:48;13.50;42.18
68257;DHT22;55069;51.568;4.656;2023-04-03T16:00:13;13.81;41.00
68257;DHT22;55069;51.568;4.656;2023-04-03T16:02:41;13.84;39.67
68257;DHT22;55069;51.568;4.656;2023-04-03T16:05:08;13.98;39.44
68257;DHT22;55069;51.568;4.656;2023-04-03T16:07:34;14.00;40.73
68257;DHT22;55069;51.568;4.656;2023-04-03T16:10:02;13.78;40.50
68257;DHT22;55069;51.568;4.656;2023-04-03T16:12:27;13.57;39.88
68257;DHT22;55069;51.568;4.656;2023-04-03T16:14:53;13.57;39.20
68257;DHT22;55069;51.568;4.656;2023-04-03T16:17:19;13.66;39.08
68257;DHT22;55069;51.568;4.656;2023-04-03T16:19:45;13.60;39.05
68257;DHT22;55069;51.568;4.656;2023-04-03T16:22:11;13.85;42.46
68257;DHT22;55069;51.568;4.656;2023-04-03T16:24:36;13.84;38.31
68257;DHT22;55069;51.568;4.656;2023-04-03T16:27:04;14.11;39.76
68257;DHT22;55069;51.568;4.656;2023-04-03T16:29:30;14.09;40.31
68257;DHT22;55069;51.568;4.656;2023-04-03T16:31:57;13.85;37.97
68257;DHT22;55069;51.568;4.656;2023-04-03T16:34:24;13.81;37.44
68257;DHT22;55069;51.568;4.656;2023-04-03T16:36:51;14.00;38.40
68257;DHT22;55069;51.568;4.656;2023-04-03T16:39:20;14.06;39.94
68257;DHT22;55069;51.568;4.656;2023-04-03T16:41:45;13.92;37.64
68257;DHT22;55069;51.568;4.656;2023-04-03T16:44:11;13.91;38.95
68257;DHT22;55069;51.568;4.656;2023-04-03T16:46:37;13.81;38.69
68257;DHT22;55069;51.568;4.656;2023-04-03T16:49:03;13.89;38.73
68257;DHT22;55069;51.568;4.656;2023-04-03T16:51:29;13.87;41.26
68257;DHT22;55069;51.568;4.656;2023-04-03T16:53:55;14.01;38.39
68257;DHT22;55069;51.568;4.656;2023-04-03T16:56:21;13.85;38.10
68257;DHT22;55069;51.568;4.656;2023-04-03T16:58:47;13.88;40.98
68257;DHT22;55069;51.568;4.656;2023-04-03T17:01:18;13.82;38.00
68257;DHT22;55069;51.568;4.656;2023-04-03T17:03:44;13.16;38.80
68257;DHT22;55069;51.568;4.656;2023-04-03T17:06:12;13.15;39.40
68257;DHT22;55069;51.568;4.656;2023-04-03T17:08:46;13.50;43.08
68257;DHT22;55069;51.568;4.656;2023-04-03T17:11:26;13.56;39.43
68257;DHT22;55069;51.568;4.656;2023-04-03T17:13:52;13.61;41.84
68257;DHT22;55069;51.568;4.656;2023-04-03T17:16:18;13.30;38.87
68257;DHT22;55069;51.568;4.656;2023-04-03T17:18:44;12.95;39.96